Time;durP1;ratioP1;P1;durP2;ratioP2;P2;SDS_P1;SDS_P2;PMS_P1;PMS_P2;Temp;Humidity;BMP_temperature;BMP_pressure;BME280_temperature;BME280_humidity;BME280_pressure;Samples;Min_cycle;Max_cycle;Signal;HPM_P1;HPM_P2
2021/09/18 00:00:00;;;;;;;16.13;14.90;;;13.40;88.60;;;;;;5202632;28;20132;-75
2021/09/18 00:02:35;;;;;;;16.50;15.20;;;13.40;88.30;;;;;;5202304;28;20049;-74
2021/09/18 00:05:08;;;;;;;17.20;15.70;;;13.30;88.80;;;;;;5202918;28;20049;-74
2021/09/18 00:07:40;;;;;;;16.60;15.27;;;13.30;88.30;;;;;;5198168;28;21014;-73
2021/09/18 00:10:12;;;;;;;17.35;15.73;;;13.40;88.60;;;;;;5201548;28;20526;-72
2021/09/18 00:12:44;;;;;;;16.52;15.20;;;13.40;88.30;;;;;;5197768;28;20046;-73
2021/09/18 00:15:16;;;;;;;17.42;16.02;;;13.40;87.60;;;;;;5202250;28;20129;-73
2021/09/18 00:17:48;;;;;;;16.17;14.93;;;13.40;87.50;;;;;;5197703;28;20041;-73
2021/09/18 00:20:20;;;;;;;16.67;15.38;;;13.30;87.80;;;;;;5202412;28;20045;-73
2021/09/18 00:22:52;;;;;;;17.00;15.57;;;13.30;87.90;;;;;;5207272;28;20525;-74
2021/09/18 00:25:24;;;;;;;16.52;15.23;;;13.30;87.90;;;;;;5202755;28;20080;-74
2021/09/18 00:27:56;;;;;;;17.58;16.17;;;13.20;88.10;;;;;;5202035;28;20037;-74
2021/09/18 00:30:28;;;;;;;17.13;15.82;;;13.10;88.60;;;;;;5200906;28;20124;-75
2021/09/18 00:33:03;;;;;;;17.85;16.13;;;13.10;88.70;;;;;;5201677;28;20057;-75
2021/09/18 00:35:35;;;;;;;17.88;16.08;;;13.10;88.90;;;;;;5201498;28;20049;-74
2021/09/18 00:38:07;;;;;;;17.17;15.80;;;13.10;89.20;;;;;;5201271;28;20486;-73
2021/09/18 00:40:40;;;;;;;17.38;16.02;;;13.10;88.80;;;;;;5197745;28;20037;-74
2021/09/18 00:43:12;;;;;;;16.73;15.30;;;13.00;88.80;;;;;;5202623;28;20053;-75
2021/09/18 00:45:43;;;;;;;16.88;15.38;;;13.00;88.80;;;;;;5200265;28;20042;-72
2021/09/18 00:48:15;;;;;;;16.88;15.48;;;12.90;88.80;;;;;;5197835;28;20136;-73
2021/09/18 00:50:47;;;;;;;16.65;15.35;;;12.80;88.40;;;;;;5201092;28;20049;-73
2021/09/18 00:53:19;;;;;;;16.75;15.32;;;12.80;88.50;;;;;;5203146;28;20507;-74
2021/09/18 00:55:51;;;;;;;16.70;15.40;;;12.80;88.50;;;;;;5202511;28;20041;-73
2021/09/18 00:58:23;;;;;;;16.50;15.30;;;12.70;88.70;;;;;;5197012;28;20053;-72
2021/09/18 01:00:55;;;;;;;17.40;15.93;;;12.70;88.80;;;;;;5201748;28;20088;-73
2021/09/18 01:03:28;;;;;;;17.88;16.52;;;12.70;88.80;;;;;;5202266;28;20120;-73
2021/09/18 01:06:00;;;;;;;17.02;15.63;;;12.70;88.50;;;;;;5199396;28;20052;-73
2021/09/18 01:08:35;;;;;;;16.60;15.20;;;12.70;88.20;;;;;;5203096;28;20041;-73
2021/09/18 01:11:07;;;;;;;17.48;16.02;;;12.70;88.20;;;;;;5200154;28;20490;-73
2021/09/18 01:13:39;;;;;;;18.25;16.67;;;12.70;88.00;;;;;;5201854;28;20099;-74
2021/09/18 01:16:11;;;;;;;18.27;16.55;;;12.70;87.90;;;;;;5199186;28;20215;-75
2021/09/18 01:18:43;;;;;;;17.45;16.10;;;12.70;88.00;;;;;;5202237;28;20163;-73
2021/09/18 01:21:17;;;;;;;17.98;16.55;;;12.60;88.90;;;;;;5195365;28;20457;-74
2021/09/18 01:23:49;;;;;;;17.98;16.40;;;12.50;89.30;;;;;;5202519;28;20463;-74
2021/09/18 01:26:37;;;;;;;18.33;16.67;;;12.40;89.70;;;;;;5199390;28;20742;-73
2021/09/18 01:29:10;;;;;;;17.40;16.10;;;12.40;89.60;;;;;;5201576;28;20064;-73
2021/09/18 01:31:44;;;;;;;17.42;16.02;;;12.40;90.20;;;;;;5202846;28;20053;-73
2021/09/18 01:34:22;;;;;;;16.90;15.60;;;12.40;89.40;;;;;;5199033;28;20056;-72
2021/09/18 01:36:54;;;;;;;17.25;15.95;;;12.30;89.30;;;;;;5198632;28;20054;-74
2021/09/18 01:39:27;;;;;;;16.95;15.63;;;12.40;89.10;;;;;;5201342;28;20044;-75
2021/09/18 01:41:59;;;;;;;17.63;16.15;;;12.40;88.70;;;;;;5200642;28;20422;-74
2021/09/18 01:44:31;;;;;;;17.80;16.40;;;12.30;88.70;;;;;;5201974;28;20132;-73
2021/09/18 01:47:03;;;;;;;17.92;16.40;;;12.30;88.80;;;;;;5199049;28;20052;-72
2021/09/18 01:49:36;;;;;;;16.90;15.50;;;12.30;88.50;;;;;;5202215;28;20053;-72
2021/09/18 01:52:29;;;;;;;17.90;16.40;;;12.40;88.20;;;;;;5200740;28;20148;-72
2021/09/18 01:55:00;;;;;;;16.85;15.55;;;12.40;88.00;;;;;;5198653;28;20042;-73
2021/09/18 01:57:32;;;;;;;17.83;16.38;;;12.30;87.80;;;;;;5195722;28;20610;-73
2021/09/18 02:00:04;;;;;;;17.75;16.17;;;12.40;87.70;;;;;;5201495;28;20487;-73
2021/09/18 02:02:36;;;;;;;17.27;15.85;;;12.30;87.30;;;;;;5200153;28;20291;-73
2021/09/18 02:05:11;;;;;;;17.80;16.30;;;12.30;87.30;;;;;;5199617;28;20053;-73
2021/09/18 02:07:43;;;;;;;17.48;15.98;;;12.30;87.50;;;;;;5195089;28;20044;-73
2021/09/18 02:10:17;;;;;;;17.70;16.38;;;12.30;87.80;;;;;;5200560;28;20041;-72
2021/09/18 02:12:49;;;;;;;17.27;15.98;;;12.20;88.80;;;;;;5199462;28;20638;-73
2021/09/18 02:15:23;;;;;;;17.13;15.82;;;12.10;89.60;;;;;;5199039;28;20079;-72
2021/09/18 02:17:56;;;;;;;17.98;16.45;;;12.10;89.60;;;;;;5194796;28;20454;-73
2021/09/18 02:20:29;;;;;;;17.05;15.73;;;12.10;90.10;;;;;;5201549;28;20104;-74
2021/09/18 02:23:03;;;;;;;17.10;15.68;;;12.00;89.40;;;;;;5199810;28;20045;-72
2021/09/18 02:25:35;;;;;;;17.67;16.25;;;12.00;89.70;;;;;;5202675;28;20052;-74
2021/09/18 02:28:07;;;;;;;16.75;15.45;;;11.90;89.70;;;;;;5201719;28;20127;-73
2021/09/18 02:30:39;;;;;;;17.00;15.60;;;11.90;89.70;;;;;;5201559;28;20598;-73
2021/09/18 02:33:11;;;;;;;17.02;15.63;;;11.70;90.40;;;;;;5197298;28;20046;-74
2021/09/18 02:35:43;;;;;;;17.25;15.88;;;11.70;90.30;;;;;;5199574;28;20073;-72
2021/09/18 02:38:15;;;;;;;17.27;15.88;;;11.80;90.40;;;;;;5199459;28;20045;-75
2021/09/18 02:40:52;;;;;;;17.17;15.73;;;11.80;90.80;;;;;;5200487;28;20140;-74
2021/09/18 02:43:24;;;;;;;16.80;15.50;;;11.70;91.20;;;;;;5199524;28;20662;-72
2021/09/18 02:45:56;;;;;;;16.10;14.80;;;11.70;90.80;;;;;;5198596;28;20604;-71
2021/09/18 02:48:28;;;;;;;15.65;14.45;;;11.70;90.30;;;;;;5199335;28;20045;-73
2021/09/18 02:51:00;;;;;;;15.40;14.20;;;11.70;89.50;;;;;;5197964;28;20045;-73
2021/09/18 02:53:32;;;;;;;16.83;15.43;;;11.60;89.10;;;;;;5199598;28;20049;-72
2021/09/18 02:56:04;;;;;;;16.00;14.52;;;11.70;88.80;;;;;;5198421;28;20053;-73
2021/09/18 02:58:37;;;;;;;16.15;14.85;;;11.60;88.80;;;;;;5201410;28;20048;-73
2021/09/18 03:01:09;;;;;;;15.35;14.15;;;11.60;88.00;;;;;;5201590;28;20571;-73
2021/09/18 03:03:41;;;;;;;15.52;14.13;;;11.50;88.40;;;;;;5199439;28;20049;-73
2021/09/18 03:06:13;;;;;;;17.35;14.48;;;11.50;88.70;;;;;;5199950;28;20063;-75
2021/09/18 03:08:45;;;;;;;15.65;14.10;;;11.50;88.70;;;;;;5197641;28;20049;-73
2021/09/18 03:11:18;;;;;;;14.77;13.50;;;11.50;89.10;;;;;;5196319;28;20059;-73
2021/09/18 03:13:49;;;;;;;14.10;13.10;;;11.40;88.80;;;;;;5195456;28;20450;-72
2021/09/18 03:16:21;;;;;;;15.10;13.75;;;11.40;89.30;;;;;;5196933;28;20110;-72
2021/09/18 03:18:54;;;;;;;15.18;14.00;;;11.40;88.70;;;;;;5198694;28;20546;-72
2021/09/18 03:21:25;;;;;;;15.02;13.93;;;11.40;89.10;;;;;;5197880;28;20085;-72
2021/09/18 03:23:58;;;;;;;15.38;14.18;;;11.30;89.40;;;;;;5200515;28;20121;-73
2021/09/18 03:26:30;;;;;;;16.33;14.07;;;11.20;89.30;;;;;;5196340;28;20107;-73
2021/09/18 03:29:03;;;;;;;14.82;13.63;;;11.20;89.20;;;;;;5199607;28;20044;-73
2021/09/18 03:31:36;;;;;;;15.00;13.77;;;11.20;89.40;;;;;;5195198;28;20141;-72
2021/09/18 03:34:08;;;;;;;14.75;13.65;;;11.20;89.50;;;;;;5200355;28;20049;-72
2021/09/18 03:36:40;;;;;;;14.90;13.60;;;11.10;89.70;;;;;;5199606;28;20553;-73
2021/09/18 03:39:14;;;;;;;15.07;13.88;;;11.00;89.30;;;;;;5169243;28;20215;-73
2021/09/18 03:41:46;;;;;;;14.60;13.48;;;11.00;89.00;;;;;;5199493;28;20041;-72
2021/09/18 03:44:18;;;;;;;14.13;13.13;;;11.00;88.90;;;;;;5202618;28;20056;-73
2021/09/18 03:46:50;;;;;;;14.35;13.25;;;11.00;89.10;;;;;;5197958;28;20080;-73
2021/09/18 03:49:22;;;;;;;14.48;13.20;;;11.00;89.30;;;;;;5200515;28;20550;-74
2021/09/18 03:51:54;;;;;;;14.23;13.13;;;11.00;89.10;;;;;;5198835;28;20045;-73
2021/09/18 03:54:26;;;;;;;14.32;13.15;;;11.00;89.20;;;;;;5200946;28;20053;-73
2021/09/18 03:56:59;;;;;;;14.13;13.02;;;10.90;89.00;;;;;;5199160;28;20046;-72
2021/09/18 03:59:31;;;;;;;14.85;13.65;;;10.90;88.90;;;;;;5194845;28;20049;-75
2021/09/18 04:02:03;;;;;;;14.15;13.15;;;10.90;89.00;;;;;;5197542;28;20975;-73
2021/09/18 04:04:36;;;;;;;14.52;13.43;;;11.00;88.80;;;;;;5199189;28;20142;-72
2021/09/18 04:07:08;;;;;;;15.70;14.40;;;10.90;88.80;;;;;;5198306;28;20042;-73
2021/09/18 04:09:40;;;;;;;15.25;13.82;;;10.90;88.80;;;;;;5197189;28;20054;-73
2021/09/18 04:12:12;;;;;;;15.70;14.18;;;10.90;89.00;;;;;;5200015;28;20498;-73
2021/09/18 04:14:44;;;;;;;15.32;14.13;;;10.90;89.40;;;;;;5194395;28;20446;-73
2021/09/18 04:17:15;;;;;;;15.48;14.07;;;10.90;89.10;;;;;;5199426;28;20050;-74
2021/09/18 04:19:47;;;;;;;15.02;13.93;;;10.90;89.10;;;;;;5197978;28;20049;-73
2021/09/18 04:22:19;;;;;;;15.60;14.23;;;10.90;88.90;;;;;;5198821;28;20045;-74
2021/09/18 04:24:51;;;;;;;15.10;13.70;;;10.80;88.80;;;;;;5200786;28;20053;-75
2021/09/18 04:27:23;;;;;;;14.90;13.65;;;10.80;89.00;;;;;;5201840;28;20142;-74
2021/09/18 04:29:55;;;;;;;14.43;13.32;;;10.80;89.00;;;;;;5201662;28;20044;-73
2021/09/18 04:32:27;;;;;;;13.88;12.88;;;10.70;89.00;;;;;;5201995;28;20046;-75
2021/09/18 04:34:59;;;;;;;14.65;13.55;;;10.70;89.00;;;;;;5202076;28;20045;-73
2021/09/18 04:37:31;;;;;;;15.45;14.25;;;10.70;89.00;;;;;;5201621;28;20042;-73
2021/09/18 04:40:03;;;;;;;14.63;13.52;;;10.80;89.00;;;;;;5214467;28;20424;-74
2021/09/18 04:42:38;;;;;;;15.35;14.18;;;10.80;88.50;;;;;;5197535;28;21049;-73
2021/09/18 04:45:11;;;;;;;14.93;13.82;;;10.80;88.90;;;;;;5197687;28;20044;-73
2021/09/18 04:47:43;;;;;;;15.35;14.02;;;10.80;88.80;;;;;;5185062;28;20099;-75
2021/09/18 04:50:15;;;;;;;15.35;14.23;;;10.80;88.80;;;;;;5197131;28;20111;-74
2021/09/18 04:52:47;;;;;;;16.35;15.02;;;10.90;89.30;;;;;;5198175;28;20099;-74
2021/09/18 04:55:19;;;;;;;15.80;14.52;;;10.90;89.30;;;;;;5201608;28;20056;-72
2021/09/18 04:57:51;;;;;;;16.30;15.10;;;10.90;89.60;;;;;;5201223;28;20706;-73
2021/09/18 05:00:23;;;;;;;16.50;15.05;;;10.90;89.80;;;;;;5199484;28;20064;-73
2021/09/18 05:02:55;;;;;;;16.05;14.85;;;10.90;89.30;;;;;;5198761;28;20045;-73
2021/09/18 05:05:27;;;;;;;16.05;14.68;;;11.00;89.00;;;;;;5200245;28;20084;-73
2021/09/18 05:07:59;;;;;;;16.45;15.20;;;11.10;88.90;;;;;;5196197;28;20044;-73
2021/09/18 05:10:31;;;;;;;15.98;14.70;;;11.10;88.80;;;;;;5199304;28;20049;-74
2021/09/18 05:13:03;;;;;;;16.33;15.13;;;11.20;88.70;;;;;;5199783;28;20138;-75
2021/09/18 05:15:35;;;;;;;15.88;14.68;;;11.20;89.10;;;;;;5196692;28;20048;-73
2021/09/18 05:18:07;;;;;;;15.60;14.43;;;11.20;89.20;;;;;;5200340;28;20056;-74
2021/09/18 05:20:39;;;;;;;15.18;13.95;;;11.20;90.00;;;;;;5196496;28;20054;-73
2021/09/18 05:23:11;;;;;;;14.88;13.77;;;11.20;89.60;;;;;;5199663;28;20538;-73
2021/09/18 05:25:43;;;;;;;15.02;13.73;;;11.10;89.80;;;;;;5200286;28;20045;-72
2021/09/18 05:28:15;;;;;;;15.50;14.10;;;11.10;89.90;;;;;;5201262;28;20045;-71
2021/09/18 05:30:47;;;;;;;15.60;14.30;;;11.20;90.00;;;;;;5202604;28;20106;-72
2021/09/18 05:33:19;;;;;;;15.27;14.07;;;11.10;91.40;;;;;;5201455;28;20052;-72
2021/09/18 05:35:51;;;;;;;15.43;14.32;;;11.20;91.30;;;;;;5198312;28;20090;-72
2021/09/18 05:38:23;;;;;;;14.75;13.65;;;11.20;91.20;;;;;;5201971;28;20455;-72
2021/09/18 05:40:55;;;;;;;15.27;14.07;;;11.30;91.00;;;;;;5200942;28;20044;-74
2021/09/18 05:43:27;;;;;;;15.43;14.23;;;11.40;91.00;;;;;;5200819;28;20045;-73
2021/09/18 05:45:59;;;;;;;16.02;14.63;;;11.40;90.80;;;;;;5200629;28;20095;-75
2021/09/18 05:48:35;;;;;;;15.02;13.93;;;11.40;90.90;;;;;;5200243;28;20107;-74
2021/09/18 05:51:07;;;;;;;15.80;14.65;;;11.40;90.60;;;;;;5196100;28;20041;-73
2021/09/18 05:53:39;;;;;;;15.60;14.43;;;11.50;90.80;;;;;;5198923;28;20072;-73
2021/09/18 05:56:11;;;;;;;15.65;14.25;;;11.50;90.50;;;;;;5195010;28;20083;-73
2021/09/18 05:58:43;;;;;;;15.65;14.45;;;11.60;91.40;;;;;;5197380;28;20613;-74
2021/09/18 06:01:15;;;;;;;15.48;14.27;;;11.60;91.20;;;;;;5198440;28;20598;-74
2021/09/18 06:03:47;;;;;;;15.20;14.10;;;11.60;90.90;;;;;;5200741;28;20101;-73
2021/09/18 06:06:20;;;;;;;15.73;14.48;;;11.70;90.90;;;;;;5197382;28;20498;-73
2021/09/18 06:08:52;;;;;;;16.00;14.80;;;11.70;91.00;;;;;;5201389;28;20821;-73
2021/09/18 06:11:23;;;;;;;16.55;15.25;;;11.80;90.70;;;;;;5199313;28;20052;-74
2021/09/18 06:13:55;;;;;;;16.95;15.55;;;11.80;90.70;;;;;;5196145;28;20045;-73
2021/09/18 06:16:27;;;;;;;16.77;15.25;;;11.80;91.00;;;;;;5194838;28;20502;-74
2021/09/18 06:18:59;;;;;;;16.58;15.27;;;11.80;91.20;;;;;;5195834;28;20053;-73
2021/09/18 06:21:31;;;;;;;16.30;15.00;;;11.80;91.50;;;;;;5199132;28;20045;-75
2021/09/18 06:24:09;;;;;;;16.92;15.63;;;11.80;91.30;;;;;;5193607;28;20148;-74
2021/09/18 06:26:41;;;;;;;16.67;15.38;;;11.90;91.40;;;;;;5197865;28;20042;-73
2021/09/18 06:29:14;;;;;;;16.88;15.48;;;11.90;91.40;;;;;;5198493;28;20049;-73
2021/09/18 06:31:46;;;;;;;17.02;15.52;;;11.90;90.90;;;;;;5198588;28;20182;-72
2021/09/18 06:34:18;;;;;;;17.88;16.45;;;11.90;90.90;;;;;;5198568;28;20048;-73
2021/09/18 06:36:50;;;;;;;16.70;15.40;;;12.00;92.00;;;;;;5197446;28;20123;-74
2021/09/18 06:39:22;;;;;;;18.02;16.42;;;12.10;91.10;;;;;;5199205;28;20112;-73
2021/09/18 06:41:57;;;;;;;15.55;14.35;;;12.10;91.20;;;;;;5199012;28;20451;-73
2021/09/18 06:44:29;;;;;;;16.33;15.13;;;12.20;91.30;;;;;;5196313;28;20045;-73
2021/09/18 06:47:01;;;;;;;16.55;15.25;;;12.30;91.00;;;;;;5193894;28;20419;-72
2021/09/18 06:49:33;;;;;;;16.13;14.93;;;12.30;90.80;;;;;;5200447;28;20123;-72
2021/09/18 06:52:06;;;;;;;16.30;15.00;;;12.30;90.80;;;;;;5196779;28;20037;-73
2021/09/18 06:54:38;;;;;;;16.00;14.60;;;12.30;91.10;;;;;;5193463;28;20041;-73
2021/09/18 06:57:11;;;;;;;16.38;15.07;;;12.30;90.70;;;;;;5197058;28;20053;-71
2021/09/18 06:59:43;;;;;;;16.95;15.45;;;12.40;90.80;;;;;;5199740;28;20111;-71
2021/09/18 07:02:16;;;;;;;16.58;15.38;;;12.40;91.20;;;;;;5180053;28;20049;-70
2021/09/18 07:04:48;;;;;;;16.15;14.85;;;12.50;91.00;;;;;;5198085;28;20395;-71
2021/09/18 07:07:20;;;;;;;15.70;14.38;;;12.60;91.00;;;;;;5198532;28;20036;-71
2021/09/18 07:09:52;;;;;;;17.38;15.73;;;12.70;90.90;;;;;;5198395;28;20065;-71
2021/09/18 07:12:24;;;;;;;15.93;14.73;;;12.80;91.20;;;;;;5198578;28;20056;-72
2021/09/18 07:14:56;;;;;;;15.98;14.60;;;12.90;90.80;;;;;;5197805;28;20042;-71
2021/09/18 07:17:28;;;;;;;16.38;15.02;;;13.00;90.40;;;;;;5198728;28;20045;-71
2021/09/18 07:20:00;;;;;;;15.90;14.70;;;13.10;90.30;;;;;;5199524;28;20065;-72
2021/09/18 07:22:32;;;;;;;15.93;14.73;;;13.20;90.20;;;;;;5193582;28;20041;-71
2021/09/18 07:25:05;;;;;;;16.23;15.02;;;13.30;90.10;;;;;;5199682;28;20429;-71
2021/09/18 07:27:38;;;;;;;15.80;14.60;;;13.40;89.40;;;;;;5197537;28;20406;-72
2021/09/18 07:30:12;;;;;;;16.10;14.90;;;13.50;89.00;;;;;;5197754;28;20126;-72
2021/09/18 07:32:44;;;;;;;15.52;14.27;;;13.60;88.80;;;;;;5199011;28;20449;-71
2021/09/18 07:35:16;;;;;;;15.75;14.55;;;13.70;88.90;;;;;;5199571;28;20049;-72
2021/09/18 07:37:48;;;;;;;16.02;14.82;;;13.70;88.60;;;;;;5197568;28;20103;-72
2021/09/18 07:40:20;;;;;;;17.05;15.75;;;13.90;88.70;;;;;;5210034;28;20721;-73
2021/09/18 07:42:52;;;;;;;16.30;15.02;;;13.90;88.40;;;;;;5199626;28;20045;-72
2021/09/18 07:45:24;;;;;;;16.98;15.60;;;14.00;88.30;;;;;;5193914;28;20080;-72
2021/09/18 07:47:56;;;;;;;16.42;15.23;;;14.20;88.30;;;;;;5194562;28;20128;-72
2021/09/18 07:50:28;;;;;;;16.73;15.48;;;14.40;87.30;;;;;;5198433;28;20518;-72
2021/09/18 07:53:00;;;;;;;16.38;15.07;;;14.60;86.50;;;;;;5198475;28;20048;-72
2021/09/18 07:55:32;;;;;;;16.55;15.25;;;14.70;85.80;;;;;;5198551;28;20110;-72
2021/09/18 07:58:20;;;;;;;16.70;15.50;;;14.80;85.70;;;;;;5196260;28;20446;-71
2021/09/18 08:00:52;;;;;;;16.88;15.63;;;14.80;86.30;;;;;;5200313;28;20049;-72
2021/09/18 08:03:24;;;;;;;17.08;15.77;;;15.10;85.40;;;;;;5203669;28;20045;-72
2021/09/18 08:05:56;;;;;;;17.00;15.80;;;15.30;84.70;;;;;;5202436;28;20060;-71
2021/09/18 08:08:28;;;;;;;16.20;14.90;;;15.50;83.50;;;;;;5202987;28;20103;-72
2021/09/18 08:11:00;;;;;;;16.90;15.57;;;15.70;81.80;;;;;;5198638;28;20048;-71
2021/09/18 08:13:32;;;;;;;16.95;15.68;;;15.80;82.90;;;;;;5199000;28;20146;-72
2021/09/18 08:16:04;;;;;;;16.88;15.55;;;16.00;82.60;;;;;;5202287;28;20045;-72
2021/09/18 08:18:36;;;;;;;16.60;15.40;;;16.10;82.30;;;;;;5197139;28;20136;-73
2021/09/18 08:21:09;;;;;;;16.35;15.25;;;16.30;80.70;;;;;;5202470;28;20069;-75
2021/09/18 08:23:41;;;;;;;16.88;15.68;;;16.50;82.60;;;;;;5198587;28;20046;-72
2021/09/18 08:26:13;;;;;;;16.70;15.43;;;16.60;81.80;;;;;;5200786;28;20096;-73
2021/09/18 08:28:48;;;;;;;16.15;15.05;;;16.70;80.50;;;;;;5202307;28;20053;-72
2021/09/18 08:31:20;;;;;;;16.33;14.93;;;16.80;77.20;;;;;;5200799;28;20080;-73
2021/09/18 08:33:53;;;;;;;16.45;15.15;;;16.80;77.60;;;;;;5204328;28;20049;-73
2021/09/18 08:36:25;;;;;;;16.67;15.32;;;16.90;79.10;;;;;;5195722;28;20667;-73
2021/09/18 08:38:57;;;;;;;16.38;15.18;;;17.10;78.10;;;;;;5201610;28;20037;-73
2021/09/18 08:41:32;;;;;;;16.75;15.55;;;17.20;79.80;;;;;;5202285;28;20052;-75
2021/09/18 08:44:04;;;;;;;17.08;15.88;;;17.30;79.70;;;;;;5204755;28;20507;-74
2021/09/18 08:46:37;;;;;;;17.33;16.05;;;17.40;77.90;;;;;;5200463;28;20087;-74
2021/09/18 08:49:12;;;;;;;16.90;15.70;;;17.50;77.20;;;;;;5197008;28;20065;-75
2021/09/18 08:51:44;;;;;;;15.63;14.52;;;17.60;77.00;;;;;;5200224;28;20053;-74
2021/09/18 08:54:16;;;;;;;16.10;15.00;;;17.60;77.70;;;;;;5201811;28;20613;-74
2021/09/18 08:56:48;;;;;;;16.58;15.38;;;17.70;77.70;;;;;;5200960;28;20103;-74
2021/09/18 08:59:20;;;;;;;16.35;15.15;;;17.80;75.60;;;;;;5200308;28;20076;-74
2021/09/18 09:02:30;;;;;;;16.25;15.15;;;17.90;76.20;;;;;;5199893;28;20045;-73
2021/09/18 09:05:09;;;;;;;17.20;15.90;;;18.00;75.30;;;;;;5173925;28;20053;-73
2021/09/18 09:08:08;;;;;;;17.15;15.77;;;18.00;75.40;;;;;;5196859;28;20052;-73
2021/09/18 09:10:43;;;;;;;17.63;16.33;;;18.10;75.70;;;;;;5200044;28;20068;-73
2021/09/18 09:13:17;;;;;;;17.25;15.98;;;18.20;76.50;;;;;;5202015;28;20581;-74
2021/09/18 09:16:04;;;;;;;17.08;15.88;;;18.20;76.60;;;;;;5202757;28;20223;-74
2021/09/18 09:18:40;;;;;;;18.42;17.13;;;18.30;75.50;;;;;;5202663;28;20156;-75
2021/09/18 09:21:22;;;;;;;17.80;16.50;;;18.40;75.20;;;;;;5201954;28;20072;-75
2021/09/18 09:24:12;;;;;;;18.50;17.20;;;18.50;75.70;;;;;;5202490;28;20457;-73
2021/09/18 09:27:16;;;;;;;17.55;16.25;;;18.50;75.30;;;;;;5202953;28;20065;-73
2021/09/18 09:29:54;;;;;;;18.55;17.25;;;18.60;74.30;;;;;;5193009;28;20145;-74
2021/09/18 09:32:33;;;;;;;18.35;17.05;;;18.70;74.90;;;;;;5201759;28;20048;-73
2021/09/18 09:35:11;;;;;;;17.00;15.80;;;18.70;74.20;;;;;;5199157;28;20038;-73
2021/09/18 09:37:53;;;;;;;18.00;16.58;;;18.80;74.50;;;;;;5196188;28;20068;-75
2021/09/18 09:40:34;;;;;;;18.95;17.40;;;18.90;74.40;;;;;;5194906;28;20466;-74
2021/09/18 09:43:08;;;;;;;18.60;17.15;;;18.90;74.50;;;;;;5196690;28;20057;-75
2021/09/18 09:45:40;;;;;;;18.88;17.40;;;19.00;74.00;;;;;;5197990;28;20049;-73
2021/09/18 09:48:22;;;;;;;18.17;16.88;;;19.00;74.90;;;;;;5197648;28;20144;-74
2021/09/18 09:51:01;;;;;;;19.13;17.83;;;19.10;74.70;;;;;;5199643;28;20042;-74
2021/09/18 09:53:34;;;;;;;19.05;17.75;;;19.10;74.00;;;;;;5201024;28;20384;-73
2021/09/18 09:56:24;;;;;;;17.70;16.33;;;19.20;73.90;;;;;;5202133;28;20076;-74
2021/09/18 09:58:58;;;;;;;;;;;19.20;73.00;;;;;;5200259;28;20041;-74
2021/09/18 10:01:31;;;;;;;19.30;17.90;;;19.20;73.80;;;;;;5200956;28;19982;-73
2021/09/18 10:04:03;;;;;;;18.38;17.10;;;19.30;73.10;;;;;;5201831;28;20037;-74
2021/09/18 10:06:35;;;;;;;18.05;16.75;;;19.40;72.70;;;;;;5198879;28;20053;-74
2021/09/18 10:09:07;;;;;;;18.48;17.17;;;19.40;70.30;;;;;;5201789;28;20494;-73
2021/09/18 10:11:40;;;;;;;18.52;17.23;;;19.50;73.20;;;;;;5197334;28;20041;-73
2021/09/18 10:14:19;;;;;;;18.48;17.17;;;19.50;69.80;;;;;;5199021;28;20049;-73
2021/09/18 10:16:56;;;;;;;18.97;17.37;;;19.60;72.50;;;;;;5198589;28;20140;-74
2021/09/18 10:25:32;;;;;;;18.55;17.25;;;19.70;73.00;;;;;;5199084;28;20087;-74
2021/09/18 10:28:16;;;;;;;18.08;16.70;;;19.80;71.30;;;;;;5200028;28;20077;-73
2021/09/18 10:30:52;;;;;;;18.48;17.17;;;19.80;71.70;;;;;;5202755;28;20037;-74
2021/09/18 10:33:45;;;;;;;17.48;16.27;;;19.90;70.80;;;;;;5201305;28;20045;-75
2021/09/18 10:36:21;;;;;;;17.92;16.52;;;19.90;70.70;;;;;;5199791;28;20145;-72
2021/09/18 10:39:16;;;;;;;19.30;17.85;;;19.90;69.30;;;;;;5200056;28;20050;-73
2021/09/18 10:41:59;;;;;;;18.15;16.85;;;19.90;68.80;;;;;;5194658;28;20045;-71
2021/09/18 10:44:51;;;;;;;18.85;17.55;;;20.00;70.60;;;;;;5184001;28;21007;-73
2021/09/18 10:47:44;;;;;;;19.02;17.63;;;20.10;69.50;;;;;;5195009;28;20175;-74
2021/09/18 10:50:22;;;;;;;19.23;17.65;;;20.10;69.70;;;;;;5210844;28;20049;-73
2021/09/18 10:53:18;;;;;;;19.48;18.02;;;20.20;69.40;;;;;;5194984;28;20540;-74
2021/09/18 10:55:53;;;;;;;20.00;18.60;;;20.20;68.60;;;;;;5195555;28;20258;-74
2021/09/18 10:58:26;;;;;;;19.30;17.88;;;20.20;68.40;;;;;;5197739;28;20049;-74
2021/09/18 11:01:00;;;;;;;19.30;18.00;;;20.30;67.40;;;;;;5198898;28;20053;-74
2021/09/18 11:03:35;;;;;;;19.95;18.55;;;20.40;68.30;;;;;;5197510;28;20119;-74
2021/09/18 11:06:08;;;;;;;19.67;18.33;;;20.40;67.30;;;;;;5199210;28;20567;-74
2021/09/18 11:08:52;;;;;;;19.33;17.92;;;20.40;67.30;;;;;;5198737;28;20763;-73
2021/09/18 11:11:25;;;;;;;19.10;17.80;;;20.30;67.20;;;;;;5197079;28;20045;-74
2021/09/18 11:14:00;;;;;;;19.15;17.80;;;20.50;66.40;;;;;;5197178;28;20061;-74
2021/09/18 11:16:36;;;;;;;19.60;18.15;;;20.50;66.90;;;;;;5196425;28;20601;-74
2021/09/18 11:19:11;;;;;;;19.90;18.48;;;20.60;67.30;;;;;;5199603;28;20041;-74
2021/09/18 11:21:45;;;;;;;20.33;18.73;;;20.70;66.90;;;;;;5192701;28;21470;-74
2021/09/18 11:24:16;;;;;;;19.05;17.75;;;20.70;65.50;;;;;;5200127;28;20072;-75
2021/09/18 11:26:53;;;;;;;20.02;18.63;;;20.80;63.50;;;;;;5197304;28;20052;-75
2021/09/18 11:29:29;;;;;;;19.02;17.73;;;20.80;65.90;;;;;;5198049;28;20045;-75
2021/09/18 11:32:21;;;;;;;18.98;17.48;;;20.80;64.70;;;;;;5197425;28;20068;-74
2021/09/18 11:34:55;;;;;;;19.17;17.88;;;20.80;65.30;;;;;;5201978;28;20052;-74
2021/09/18 11:37:30;;;;;;;18.90;17.48;;;20.90;65.50;;;;;;5199216;28;20048;-75
2021/09/18 11:40:08;;;;;;;19.27;17.98;;;20.90;63.30;;;;;;5199363;28;20037;-73
2021/09/18 11:42:42;;;;;;;19.45;18.15;;;20.90;64.90;;;;;;5200393;28;20037;-74
2021/09/18 11:45:17;;;;;;;18.92;17.60;;;20.90;63.00;;;;;;5196791;28;20107;-74
2021/09/18 11:47:51;;;;;;;19.38;17.98;;;20.90;64.50;;;;;;5213114;28;20136;-75
2021/09/18 11:50:25;;;;;;;19.15;17.85;;;21.00;64.10;;;;;;5198884;28;20139;-74
2021/09/18 11:53:00;;;;;;;19.23;17.92;;;21.00;64.10;;;;;;5201155;28;20124;-75
2021/09/18 11:55:40;;;;;;;18.92;17.63;;;21.10;62.60;;;;;;5201056;28;20132;-75
2021/09/18 11:58:28;;;;;;;19.17;17.77;;;21.10;63.70;;;;;;5197731;28;20131;-74
2021/09/18 12:01:03;;;;;;;19.25;17.92;;;21.10;63.60;;;;;;5202449;28;20143;-74
2021/09/18 12:03:38;;;;;;;19.27;17.98;;;21.10;63.90;;;;;;5197648;28;20180;-75
2021/09/18 12:06:13;;;;;;;18.60;17.30;;;21.20;63.40;;;;;;5204003;28;20056;-76
2021/09/18 12:08:47;;;;;;;18.95;17.65;;;21.20;65.30;;;;;;5203087;28;20041;-75
2021/09/18 12:11:20;;;;;;;18.27;17.08;;;21.30;63.50;;;;;;5203358;28;20547;-75
2021/09/18 12:13:55;;;;;;;19.05;17.75;;;21.20;63.00;;;;;;5202516;28;20054;-75
2021/09/18 12:16:29;;;;;;;18.40;17.10;;;21.20;62.20;;;;;;5195832;28;20083;-75
2021/09/18 12:19:01;;;;;;;18.73;17.42;;;21.10;62.70;;;;;;5199802;28;20749;-75
2021/09/18 12:21:33;;;;;;;19.30;17.85;;;21.20;62.90;;;;;;5199631;28;20510;-75
2021/09/18 12:24:08;;;;;;;18.65;17.35;;;21.20;62.20;;;;;;5201888;28;20507;-74
2021/09/18 12:26:41;;;;;;;18.83;17.52;;;21.10;61.90;;;;;;5202556;28;20042;-75
2021/09/18 12:29:16;;;;;;;18.83;17.52;;;21.10;62.00;;;;;;5202112;28;20049;-75
2021/09/18 12:31:48;;;;;;;18.90;17.60;;;21.20;61.30;;;;;;5199883;28;20041;-75
2021/09/18 12:34:23;;;;;;;19.15;17.75;;;21.20;63.00;;;;;;5200314;28;20131;-74
2021/09/18 12:37:06;;;;;;;18.70;17.35;;;21.30;63.50;;;;;;5202029;28;20045;-75
2021/09/18 12:39:38;;;;;;;19.02;17.63;;;21.30;62.40;;;;;;5192169;28;20112;-75
2021/09/18 12:42:10;;;;;;;19.63;18.23;;;21.30;61.80;;;;;;5200803;28;20117;-75
2021/09/18 12:44:42;;;;;;;19.45;18.05;;;21.30;61.30;;;;;;5196372;28;20064;-76
2021/09/18 12:47:24;;;;;;;19.25;17.85;;;21.30;61.60;;;;;;5197416;28;20052;-74
2021/09/18 12:50:14;;;;;;;19.40;17.98;;;21.30;61.80;;;;;;5204015;28;20033;-74
2021/09/18 12:52:46;;;;;;;18.55;17.25;;;21.40;61.50;;;;;;5199725;28;20847;-74
2021/09/18 12:55:18;;;;;;;18.90;17.60;;;21.50;63.10;;;;;;5197807;28;20080;-74
2021/09/18 12:57:50;;;;;;;18.73;17.42;;;21.50;61.00;;;;;;5199351;28;20109;-73
2021/09/18 13:00:24;;;;;;;18.15;16.85;;;21.50;61.80;;;;;;5201517;28;20127;-74
2021/09/18 13:03:12;;;;;;;18.63;17.33;;;21.50;62.20;;;;;;5213841;28;20136;-73
2021/09/18 13:06:06;;;;;;;18.00;16.80;;;21.50;62.10;;;;;;5197133;28;20554;-73
2021/09/18 13:08:55;;;;;;;18.88;17.48;;;21.50;62.00;;;;;;5201692;28;20095;-74